Time,TemperatureF,DewpointF,PressureIn,WindDirection,WindDirectionDegrees,WindSpeedMPH,WindSpeedGustMPH,Humidity,HourlyPrecipIn,Conditions,Clouds,dailyrainin,SolarRadiationWatts/m^2,SoftwareType,DateUTC
2013-02-20 00:41:00,36.0,34.0,30.06,ENE,59,2.0,6.0,91,-99.99,,,0.00,0.000000,,2013-02-20 08:41:00,
2013-02-20 00:52:00,36.0,34.0,30.06,ENE,59,2.0,6.0,91,-99.99,,,0.00,0.000000,,2013-02-20 08:52:00,
2013-02-20 01:01:00,36.0,34.0,30.06,ENE,59,2.0,6.0,91,-99.99,,,0.00,0.000000,,2013-02-20 09:01:00,
2013-02-20 01:11:00,36.0,34.0,30.06,ENE,59,2.0,6.0,91,-99.99,,,0.00,0.000000,,2013-02-20 09:11:00,
2013-02-20 01:41:00,34.0,33.0,30.06,NE,52,2.0,5.0,93,-99.99,,,0.00,0.000000,,2013-02-20 09:41:00,
2013-02-20 01:52:00,34.0,33.0,30.06,NE,52,2.0,5.0,93,-99.99,,,0.00,0.000000,,2013-02-20 09:52:00,
2013-02-20 02:01:00,34.0,33.0,30.06,NE,52,2.0,5.0,93,-99.99,,,0.00,0.000000,,2013-02-20 10:01:00,
2013-02-20 02:12:00,34.0,33.0,30.06,NE,52,2.0,5.0,93,-99.99,,,0.00,0.000000,,2013-02-20 10:12:00,
2013-02-20 02:41:00,34.0,32.0,30.08,North,7,1.0,2.0,94,-99.99,,,0.00,0.000000,,2013-02-20 10:41:00,
2013-02-20 02:52:00,34.0,32.0,30.08,North,7,1.0,2.0,94,-99.99,,,0.00,0.000000,,2013-02-20 10:52:00,
2013-02-20 03:02:00,34.0,32.0,30.08,North,7,1.0,2.0,94,-99.99,,,0.00,0.000000,,2013-02-20 11:02:00,
2013-02-20 03:11:00,34.0,32.0,30.08,North,7,1.0,2.0,94,-99.99,,,0.00,0.000000,,2013-02-20 11:11:00,
2013-02-20 03:41:00,34.0,33.0,30.10,North,5,1.0,2.0,94,-99.99,,,0.00,0.000000,,2013-02-20 11:41:00,
2013-02-20 03:52:00,34.0,33.0,30.10,North,5,1.0,2.0,94,-99.99,,,0.00,0.000000,,2013-02-20 11:52:00,
2013-02-20 04:01:00,34.0,33.0,30.10,North,5,1.0,2.0,94,-99.99,,,0.00,0.000000,,2013-02-20 12:01:00,
2013-02-20 04:11:00,34.0,33.0,30.10,North,5,1.0,2.0,94,-99.99,,,0.00,0.000000,,2013-02-20 12:11:00,
2013-02-20 04:42:00,35.0,33.0,30.10,NNE,30,1.0,2.0,93,-99.99,,,0.00,0.000000,,2013-02-20 12:42:00,
2013-02-20 04:53:00,35.0,33.0,30.10,NNE,30,1.0,2.0,93,-99.99,,,0.00,0.000000,,2013-02-20 12:53:00,
2013-02-20 05:01:00,35.0,33.0,30.10,NNE,30,1.0,2.0,93,-99.99,,,0.00,0.000000,,2013-02-20 13:01:00,
2013-02-20 05:11:00,35.0,33.0,30.10,NNE,30,1.0,2.0,93,-99.99,,,0.00,0.000000,,2013-02-20 13:11:00,
2013-02-20 06:42:00,38.0,35.0,30.12,NNE,24,1.0,3.0,88,-99.99,,,0.00,0.000000,,2013-02-20 14:42:00,
2013-02-20 06:52:00,38.0,35.0,30.12,NNE,24,1.0,3.0,88,-99.99,,,0.00,0.000000,,2013-02-20 14:52:00,
2013-02-20 07:01:00,38.0,35.0,30.12,NNE,24,1.0,3.0,88,-99.99,,,0.00,0.000000,,2013-02-20 15:01:00,
2013-02-20 07:11:00,38.0,35.0,30.12,NNE,24,1.0,3.0,88,-99.99,,,0.00,0.000000,,2013-02-20 15:11:00,
2013-02-20 07:41:00,38.0,35.0,30.13,SW,219,2.0,5.0,89,-99.99,,,0.00,7.320000,,2013-02-20 15:41:00,
2013-02-20 07:52:00,38.0,35.0,30.13,SW,219,2.0,5.0,89,-99.99,,,0.00,7.320000,,2013-02-20 15:52:00,
2013-02-20 08:01:00,38.0,35.0,30.13,SW,219,2.0,5.0,89,-99.99,,,0.00,7.320000,,2013-02-20 16:01:00,
2013-02-20 08:11:00,38.0,35.0,30.13,SW,219,2.0,5.0,89,-99.99,,,0.00,7.320000,,2013-02-20 16:11:00,
2013-02-20 08:41:00,39.0,36.0,30.13,WSW,253,1.0,6.0,88,-99.99,,,-99.99,57.759998,,2013-02-20 16:41:00,
2013-02-20 08:52:00,39.0,36.0,30.13,WSW,253,1.0,6.0,88,-99.99,,,-99.99,57.759998,,2013-02-20 16:52:00,
2013-02-20 09:01:00,39.0,36.0,30.13,WSW,253,1.0,6.0,88,-99.99,,,-99.99,57.759998,,2013-02-20 17:01:00,
2013-02-20 09:11:00,39.0,36.0,30.13,WSW,253,1.0,6.0,88,-99.99,,,-99.99,57.759998,,2013-02-20 17:11:00,
2013-02-20 09:41:00,40.0,37.0,30.13,East,90,1.0,2.0,88,-99.99,,,0.00,85.889999,,2013-02-20 17:41:00,
2013-02-20 09:52:00,40.0,37.0,30.13,East,90,1.0,2.0,88,-99.99,,,0.00,85.889999,,2013-02-20 17:52:00,
2013-02-20 10:02:00,40.0,37.0,30.13,East,90,1.0,2.0,88,-99.99,,,0.00,85.889999,,2013-02-20 18:02:00,
2013-02-20 10:11:00,40.0,37.0,30.13,East,90,1.0,2.0,88,-99.99,,,0.00,85.889999,,2013-02-20 18:11:00,
2013-02-20 10:42:00,43.0,38.0,30.13,West,268,5.0,8.0,80,-99.99,,,0.00,209.199997,,2013-02-20 18:42:00,
2013-02-20 10:52:00,43.0,38.0,30.13,West,268,5.0,8.0,80,-99.99,,,0.00,209.199997,,2013-02-20 18:52:00,
2013-02-20 11:01:00,43.0,38.0,30.13,West,268,5.0,8.0,80,-99.99,,,0.00,209.199997,,2013-02-20 19:01:00,
2013-02-20 11:11:00,43.0,38.0,30.13,West,268,5.0,8.0,80,-99.99,,,0.00,209.199997,,2013-02-20 19:11:00,
2013-02-20 11:31:00,45.0,38.0,30.13,West,260,6.0,10.0,76,-99.99,,,0.00,210.009995,,2013-02-20 19:31:00,
2013-02-20 11:41:00,45.0,38.0,30.13,West,260,6.0,10.0,76,-99.99,,,0.00,210.009995,,2013-02-20 19:41:00,
2013-02-20 11:52:00,45.0,38.0,30.13,West,260,6.0,10.0,76,-99.99,,,0.00,210.009995,,2013-02-20 19:52:00,
2013-02-20 12:01:00,45.0,38.0,30.13,West,260,6.0,10.0,76,-99.99,,,0.00,210.009995,,2013-02-20 20:01:00,
2013-02-20 12:11:00,45.0,38.0,30.13,West,260,6.0,10.0,76,-99.99,,,0.00,210.009995,,2013-02-20 20:11:00,
2013-02-20 12:41:00,45.0,36.0,30.13,WSW,241,8.0,16.0,70,-99.99,,,0.00,185.250000,,2013-02-20 20:41:00,
2013-02-20 12:51:00,45.0,36.0,30.13,WSW,241,8.0,16.0,70,-99.99,,,0.00,185.250000,,2013-02-20 20:51:00,
2013-02-20 13:01:00,45.0,36.0,30.13,WSW,241,8.0,16.0,70,-99.99,,,0.00,185.250000,,2013-02-20 21:01:00,
2013-02-20 13:11:00,45.0,36.0,30.13,WSW,241,8.0,16.0,70,-99.99,,,0.00,185.250000,,2013-02-20 21:11:00,
2013-02-20 13:41:00,46.0,37.0,30.10,WSW,248,7.0,14.0,71,-99.99,,,0.00,234.759995,,2013-02-20 21:41:00,
2013-02-20 13:52:00,46.0,37.0,30.10,WSW,248,7.0,14.0,71,-99.99,,,0.00,234.759995,,2013-02-20 21:52:00,
2013-02-20 14:01:00,46.0,37.0,30.10,WSW,248,7.0,14.0,71,-99.99,,,0.00,234.759995,,2013-02-20 22:01:00,
2013-02-20 14:11:00,46.0,37.0,30.10,WSW,248,7.0,14.0,71,-99.99,,,0.00,234.759995,,2013-02-20 22:11:00,
2013-02-20 14:42:00,47.0,37.0,30.07,WSW,251,7.0,13.0,68,-99.99,,,0.00,227.089996,,2013-02-20 22:42:00,
2013-02-20 14:51:00,47.0,37.0,30.07,WSW,251,7.0,13.0,68,-99.99,,,0.00,227.089996,,2013-02-20 22:51:00,
2013-02-20 15:01:00,47.0,37.0,30.07,WSW,251,7.0,13.0,68,-99.99,,,0.00,227.089996,,2013-02-20 23:01:00,
2013-02-20 15:12:00,47.0,37.0,30.07,WSW,251,7.0,13.0,68,-99.99,,,0.00,227.089996,,2013-02-20 23:12:00,
2013-02-20 15:42:00,47.0,38.0,30.07,West,273,6.0,10.0,70,-99.99,,,0.00,151.669998,,2013-02-20 23:42:00,
2013-02-20 15:52:00,47.0,38.0,30.07,West,273,6.0,10.0,70,-99.99,,,0.00,151.669998,,2013-02-20 23:52:00,
2013-02-20 16:02:00,47.0,38.0,30.07,West,273,6.0,10.0,70,-99.99,,,0.00,151.669998,,2013-02-21 00:02:00,
2013-02-20 16:11:00,47.0,38.0,30.07,West,273,6.0,10.0,70,-99.99,,,0.00,151.669998,,2013-02-21 00:11:00,
2013-02-20 16:32:00,44.0,40.0,30.07,SSE,148,1.0,3.0,86,-99.99,,,0.00,92.860001,,2013-02-21 00:32:00,
2013-02-20 16:42:00,44.0,40.0,30.07,SSE,148,1.0,3.0,86,-99.99,,,0.00,92.860001,,2013-02-21 00:42:00,
2013-02-20 16:52:00,44.0,40.0,30.07,SSE,148,1.0,3.0,86,-99.99,,,0.00,92.860001,,2013-02-21 00:52:00,
2013-02-20 17:01:00,44.0,40.0,30.07,SSE,148,1.0,3.0,86,-99.99,,,0.00,92.860001,,2013-02-21 01:01:00,
2013-02-20 17:11:00,44.0,40.0,30.07,SSE,148,1.0,3.0,86,-99.99,,,0.00,92.860001,,2013-02-21 01:11:00,
2013-02-20 17:41:00,44.0,41.0,30.07,NE,56,0.0,2.0,90,-99.99,,,0.00,28.709999,,2013-02-21 01:41:00,
2013-02-20 17:52:00,44.0,41.0,30.07,NE,56,0.0,2.0,90,-99.99,,,0.00,28.709999,,2013-02-21 01:52:00,
2013-02-20 18:01:00,44.0,41.0,30.07,NE,56,0.0,2.0,90,-99.99,,,0.00,28.709999,,2013-02-21 02:01:00,
2013-02-20 18:11:00,44.0,41.0,30.07,NE,56,0.0,2.0,90,-99.99,,,0.00,28.709999,,2013-02-21 02:11:00,
2013-02-20 19:01:00,41.0,39.0,30.09,WSW,245,3.0,6.0,93,-99.99,,,0.00,0.000000,,2013-02-21 03:01:00,
2013-02-20 19:11:00,41.0,39.0,30.09,WSW,245,3.0,6.0,93,-99.99,,,0.00,0.000000,,2013-02-21 03:11:00,
2013-02-20 19:41:00,40.0,39.0,30.11,WNW,296,1.0,3.0,95,-99.99,,,0.01,0.000000,,2013-02-21 03:41:00,
2013-02-20 19:52:00,40.0,39.0,30.11,WNW,296,1.0,3.0,95,-99.99,,,0.01,0.000000,,2013-02-21 03:52:00,
2013-02-20 20:01:00,40.0,39.0,30.11,WNW,296,1.0,3.0,95,-99.99,,,0.01,0.000000,,2013-02-21 04:01:00,
2013-02-20 20:11:00,40.0,39.0,30.11,WNW,296,1.0,3.0,95,-99.99,,,0.01,0.000000,,2013-02-21 04:11:00,
2013-02-20 20:32:00,40.0,39.0,30.11,WNW,286,1.0,4.0,95,-99.99,,,0.01,0.000000,,2013-02-21 04:32:00,
2013-02-20 20:41:00,40.0,39.0,30.11,WNW,286,1.0,4.0,95,-99.99,,,0.01,0.000000,,2013-02-21 04:41:00,
2013-02-20 20:52:00,40.0,39.0,30.11,WNW,286,1.0,4.0,95,-99.99,,,0.01,0.000000,,2013-02-21 04:52:00,
2013-02-20 21:02:00,40.0,39.0,30.11,WNW,286,1.0,4.0,95,-99.99,,,0.01,0.000000,,2013-02-21 05:02:00,
2013-02-20 21:12:00,40.0,39.0,30.11,WNW,286,1.0,4.0,95,-99.99,,,0.01,0.000000,,2013-02-21 05:12:00,
2013-02-20 21:33:00,40.0,39.0,30.12,ENE,68,2.0,4.0,95,-99.99,,,0.01,0.000000,,2013-02-21 05:33:00,
2013-02-20 21:43:00,40.0,39.0,30.12,ENE,68,2.0,4.0,95,-99.99,,,0.01,0.000000,,2013-02-21 05:43:00,
2013-02-20 21:58:00,40.0,39.0,30.12,ENE,68,2.0,4.0,95,-99.99,,,0.01,0.000000,,2013-02-21 05:58:00,
2013-02-20 22:01:00,40.0,39.0,30.12,ENE,68,2.0,4.0,95,-99.99,,,0.01,0.000000,,2013-02-21 06:01:00,
2013-02-20 22:11:00,40.0,39.0,30.12,ENE,68,2.0,4.0,95,-99.99,,,0.01,0.000000,,2013-02-21 06:11:00,
2013-02-20 22:31:00,40.0,39.0,30.12,ENE,67,1.0,4.0,96,-99.99,,,0.01,0.000000,,2013-02-21 06:31:00,
2013-02-20 22:41:00,40.0,39.0,30.12,ENE,67,1.0,4.0,96,-99.99,,,0.01,0.000000,,2013-02-21 06:41:00,
2013-02-20 22:51:00,40.0,39.0,30.12,ENE,67,1.0,4.0,96,-99.99,,,0.01,0.000000,,2013-02-21 06:51:00,
2013-02-20 23:01:00,40.0,39.0,30.12,ENE,67,1.0,4.0,96,-99.99,,,0.01,0.000000,,2013-02-21 07:01:00,
2013-02-20 23:11:00,40.0,39.0,30.12,ENE,67,1.0,4.0,96,-99.99,,,0.01,0.000000,,2013-02-21 07:11:00,
2013-02-20 23:42:00,40.0,39.0,30.13,SSW,205,0.0,1.0,96,-99.99,,,0.01,0.000000,,2013-02-21 07:42:00,
2013-02-20 23:52:00,40.0,39.0,30.13,SSW,205,0.0,1.0,96,-99.99,,,0.01,0.000000,,2013-02-21 07:52:00,